Time;durP1;ratioP1;P1;durP2;ratioP2;P2;SDS_P1;SDS_P2;PMS_P1;PMS_P2;Temp;Humidity;BMP_temperature;BMP_pressure;BME280_temperature;BME280_humidity;BME280_pressure;Samples;Min_cycle;Max_cycle;Signal;HPM_P1;HPM_P2
2023/07/24 00:01:18;;;;;;;12.88;11.68;;;18.00;99.90;;;;;;5102587;28;20036;-56
2023/07/24 00:03:44;;;;;;;12.27;11.07;;;18.00;99.90;;;;;;5101412;28;20058;-57
2023/07/24 00:06:09;;;;;;;13.13;11.82;;;18.00;99.90;;;;;;5102987;28;20036;-56
2023/07/24 00:08:35;;;;;;;13.50;11.52;;;18.00;99.90;;;;;;5100942;28;20052;-56
2023/07/24 00:11:02;;;;;;;14.52;10.90;;;18.00;99.90;;;;;;5101521;28;20119;-56
2023/07/24 00:13:28;;;;;;;12.10;10.90;;;18.00;99.90;;;;;;5101008;28;20473;-57
2023/07/24 00:15:54;;;;;;;15.45;11.50;;;18.00;99.90;;;;;;5102710;28;20051;-57
2023/07/24 00:18:19;;;;;;;13.38;11.05;;;17.90;99.90;;;;;;5101954;28;20105;-56
2023/07/24 00:20:45;;;;;;;12.93;11.38;;;18.00;99.90;;;;;;5101471;28;20063;-57
2023/07/24 00:23:11;;;;;;;14.10;11.25;;;17.90;99.90;;;;;;5102562;28;20040;-57
2023/07/24 00:25:37;;;;;;;16.35;12.05;;;17.90;99.90;;;;;;5082167;28;20393;-57
2023/07/24 00:28:03;;;;;;;12.73;11.30;;;17.90;99.90;;;;;;5102776;28;20092;-56
2023/07/24 00:30:28;;;;;;;13.18;10.98;;;17.90;99.90;;;;;;5100620;28;20131;-57
2023/07/24 00:32:54;;;;;;;16.92;11.05;;;17.90;99.90;;;;;;5102587;28;20107;-56
2023/07/24 00:35:20;;;;;;;11.65;10.00;;;17.80;99.90;;;;;;5101441;28;20043;-56
2023/07/24 00:37:45;;;;;;;11.65;9.75;;;17.80;99.90;;;;;;5101393;28;20468;-56
2023/07/24 00:40:11;;;;;;;11.38;10.13;;;17.80;99.90;;;;;;5100679;28;20046;-56
2023/07/24 00:42:37;;;;;;;13.70;9.75;;;17.70;99.90;;;;;;5100304;28;20040;-56
2023/07/24 00:45:03;;;;;;;12.45;9.60;;;17.70;99.90;;;;;;5102339;28;20046;-56
2023/07/24 00:47:29;;;;;;;10.48;9.38;;;17.70;99.90;;;;;;5099826;28;20047;-56
2023/07/24 00:49:56;;;;;;;11.43;8.90;;;17.70;99.90;;;;;;5102561;28;20040;-56
2023/07/24 00:52:21;;;;;;;11.32;9.30;;;17.70;99.90;;;;;;5100905;28;20036;-56
2023/07/24 00:54:48;;;;;;;11.70;9.38;;;17.70;99.90;;;;;;5101310;28;20075;-56
2023/07/24 00:57:14;;;;;;;10.45;9.35;;;17.70;99.90;;;;;;5101775;28;20097;-56
2023/07/24 00:59:42;;;;;;;11.10;9.40;;;17.70;99.90;;;;;;5098709;28;20041;-56
2023/07/24 01:02:08;;;;;;;10.68;9.30;;;17.60;99.90;;;;;;5100201;28;20048;-56
2023/07/24 01:04:34;;;;;;;9.93;8.68;;;17.60;99.90;;;;;;5098725;28;20407;-57
2023/07/24 01:07:00;;;;;;;10.55;9.05;;;17.60;99.90;;;;;;5102187;28;20052;-57
2023/07/24 01:09:25;;;;;;;9.98;8.77;;;17.60;99.90;;;;;;5082150;28;20036;-56
2023/07/24 01:11:59;;;;;;;11.32;8.98;;;17.60;99.90;;;;;;5100908;28;20040;-57
2023/07/24 01:14:31;;;;;;;9.32;8.30;;;17.60;99.90;;;;;;5101584;28;20416;-56
2023/07/24 01:17:00;;;;;;;12.10;8.40;;;17.60;99.90;;;;;;5099677;28;20067;-57
2023/07/24 01:19:34;;;;;;;9.75;8.70;;;17.50;99.90;;;;;;5101688;28;20066;-56
2023/07/24 01:22:12;;;;;;;11.13;8.00;;;17.50;99.90;;;;;;5098217;28;20044;-56
2023/07/24 01:25:01;;;;;;;14.00;8.50;;;17.50;99.90;;;;;;5099584;28;20044;-56
2023/07/24 01:27:27;;;;;;;9.27;7.95;;;17.50;99.90;;;;;;5101310;28;20055;-56
2023/07/24 01:29:52;;;;;;;11.32;8.20;;;17.50;99.90;;;;;;5099491;28;20039;-57
2023/07/24 01:32:19;;;;;;;9.43;8.30;;;17.50;99.90;;;;;;5101340;28;20058;-57
2023/07/24 01:34:46;;;;;;;10.00;8.18;;;17.50;99.90;;;;;;5098025;28;20132;-57
2023/07/24 01:37:12;;;;;;;8.73;7.82;;;17.50;99.90;;;;;;5100818;28;20048;-57
2023/07/24 01:39:40;;;;;;;12.85;8.63;;;17.50;99.90;;;;;;5098688;28;20089;-56
2023/07/24 01:42:07;;;;;;;10.07;8.07;;;17.50;99.90;;;;;;5099752;28;20389;-57
2023/07/24 01:44:32;;;;;;;10.98;7.50;;;17.50;99.90;;;;;;5100952;28;20042;-56
2023/07/24 01:46:58;;;;;;;10.48;8.23;;;17.50;99.90;;;;;;5099093;28;20048;-57
2023/07/24 01:49:24;;;;;;;8.52;7.63;;;17.50;99.90;;;;;;5101014;28;20032;-56
2023/07/24 01:51:49;;;;;;;13.40;8.48;;;17.50;99.90;;;;;;5097412;28;20197;-56
2023/07/24 01:54:15;;;;;;;9.70;7.88;;;17.50;99.90;;;;;;5099646;28;20427;-56
2023/07/24 01:56:41;;;;;;;9.57;7.78;;;17.50;99.90;;;;;;5098459;28;20036;-56
2023/07/24 01:59:06;;;;;;;10.80;8.38;;;17.50;99.90;;;;;;5099741;28;20040;-56
2023/07/24 02:01:32;;;;;;;10.27;7.72;;;17.50;99.90;;;;;;5100455;28;20079;-56
2023/07/24 02:03:58;;;;;;;10.55;8.32;;;17.50;99.90;;;;;;5098570;28;20036;-57
2023/07/24 02:06:23;;;;;;;10.15;8.25;;;17.50;99.90;;;;;;5100762;28;20051;-56
2023/07/24 02:08:51;;;;;;;8.50;7.60;;;17.50;99.90;;;;;;5098307;28;20047;-57
2023/07/24 02:11:17;;;;;;;7.88;7.07;;;17.50;99.90;;;;;;5100744;28;20036;-56
2023/07/24 02:13:45;;;;;;;9.20;8.25;;;17.50;99.90;;;;;;5099222;28;20046;-56
2023/07/24 02:16:12;;;;;;;9.18;7.80;;;17.50;99.90;;;;;;5099883;28;20051;-56
2023/07/24 02:18:42;;;;;;;9.43;7.90;;;17.50;99.90;;;;;;5100363;28;20426;-56
2023/07/24 02:21:09;;;;;;;10.10;8.00;;;17.50;99.90;;;;;;5098191;28;20048;-57
2023/07/24 02:23:35;;;;;;;9.13;8.10;;;17.50;99.90;;;;;;5100630;28;20032;-56
2023/07/24 02:26:01;;;;;;;9.77;7.97;;;17.50;99.90;;;;;;5096896;28;20121;-56
2023/07/24 02:28:26;;;;;;;9.10;7.75;;;17.50;99.90;;;;;;5100830;28;20044;-56
2023/07/24 02:30:55;;;;;;;9.52;8.00;;;17.50;99.90;;;;;;5098710;28;20044;-56
2023/07/24 02:33:22;;;;;;;9.93;8.32;;;17.50;99.90;;;;;;5099293;28;20048;-57
2023/07/24 02:35:51;;;;;;;8.98;7.75;;;17.50;99.90;;;;;;5099957;28;20055;-56
2023/07/24 02:38:17;;;;;;;10.35;7.60;;;17.50;99.90;;;;;;5098312;28;20059;-57
2023/07/24 02:40:44;;;;;;;9.38;8.35;;;17.50;99.90;;;;;;5098927;28;20040;-56
2023/07/24 02:43:10;;;;;;;10.27;7.85;;;17.50;99.90;;;;;;5097998;28;20072;-57
2023/07/24 02:45:37;;;;;;;11.45;7.90;;;17.50;99.90;;;;;;5100487;28;20538;-57
2023/07/24 02:48:03;;;;;;;10.88;7.97;;;17.50;99.90;;;;;;5098785;28;20044;-56
2023/07/24 02:50:29;;;;;;;8.70;7.80;;;17.50;99.90;;;;;;5098854;28;20504;-56
2023/07/24 02:52:55;;;;;;;9.02;7.47;;;17.50;99.90;;;;;;5099963;28;20044;-57
2023/07/24 02:55:20;;;;;;;11.02;8.55;;;17.50;99.90;;;;;;5098120;28;20119;-56
2023/07/24 02:57:46;;;;;;;10.60;7.35;;;17.50;99.90;;;;;;5100127;28;20076;-57
2023/07/24 03:00:12;;;;;;;8.43;7.40;;;17.50;99.90;;;;;;5097829;28;20032;-57
2023/07/24 03:02:39;;;;;;;9.32;7.78;;;17.50;99.90;;;;;;5100555;28;20091;-57
2023/07/24 03:05:05;;;;;;;10.48;8.43;;;17.50;99.90;;;;;;5098173;28;20039;-57
2023/07/24 03:07:32;;;;;;;9.30;7.75;;;17.50;99.90;;;;;;5099379;28;20032;-57
2023/07/24 03:09:58;;;;;;;10.85;8.00;;;17.50;99.90;;;;;;5098297;28;20047;-57
2023/07/24 03:12:24;;;;;;;10.70;7.18;;;17.40;99.90;;;;;;5097809;28;20093;-56
2023/07/24 03:14:49;;;;;;;10.35;8.07;;;17.40;99.90;;;;;;5100076;28;20036;-57
2023/07/24 03:17:15;;;;;;;10.77;8.45;;;17.40;99.90;;;;;;5097654;28;20051;-57
2023/07/24 03:19:41;;;;;;;11.23;8.23;;;17.40;99.90;;;;;;5100070;28;20058;-57
2023/07/24 03:22:07;;;;;;;11.23;8.50;;;17.40;99.90;;;;;;5098201;28;20052;-56
2023/07/24 03:24:34;;;;;;;9.90;8.18;;;17.40;99.90;;;;;;5099339;28;20040;-57
2023/07/24 03:27:00;;;;;;;9.35;8.40;;;17.30;99.90;;;;;;5098062;28;20138;-56
2023/07/24 03:29:26;;;;;;;12.68;9.13;;;17.30;99.90;;;;;;5097790;28;20073;-56
2023/07/24 03:31:52;;;;;;;10.98;9.07;;;17.30;99.90;;;;;;5099464;28;20048;-57
2023/07/24 03:34:18;;;;;;;9.27;8.23;;;17.30;99.90;;;;;;5097547;28;20066;-56
2023/07/24 03:36:44;;;;;;;9.82;8.45;;;17.30;99.90;;;;;;5099995;28;20060;-56
2023/07/24 03:39:10;;;;;;;10.05;8.40;;;17.30;99.90;;;;;;5079574;28;20572;-57
2023/07/24 03:41:37;;;;;;;9.05;8.15;;;17.30;99.90;;;;;;5098925;28;20059;-57
2023/07/24 03:44:02;;;;;;;10.77;8.90;;;17.30;99.90;;;;;;5097928;28;20075;-57
2023/07/24 03:46:28;;;;;;;9.98;8.77;;;17.30;99.90;;;;;;5096474;28;20369;-56
2023/07/24 03:48:54;;;;;;;10.13;9.13;;;17.30;99.90;;;;;;5099246;28;20036;-56
2023/07/24 03:51:19;;;;;;;12.60;9.93;;;17.30;99.90;;;;;;5097707;28;20055;-57
2023/07/24 03:53:45;;;;;;;11.63;9.40;;;17.30;99.90;;;;;;5099774;28;20501;-56
2023/07/24 03:56:11;;;;;;;12.40;9.60;;;17.30;99.90;;;;;;5097494;28;20721;-57
2023/07/24 03:58:38;;;;;;;14.15;10.10;;;17.30;99.90;;;;;;5098102;28;20070;-56
2023/07/24 04:01:04;;;;;;;11.95;9.95;;;17.30;99.90;;;;;;5100592;28;20036;-56
2023/07/24 04:03:30;;;;;;;10.80;9.70;;;17.30;99.90;;;;;;5101788;28;20508;-56
2023/07/24 04:05:55;;;;;;;11.35;9.77;;;17.30;99.90;;;;;;5101608;28;20036;-57
2023/07/24 04:08:21;;;;;;;16.15;10.07;;;17.30;99.90;;;;;;5099663;28;20048;-57
2023/07/24 04:10:47;;;;;;;10.77;9.55;;;17.30;99.90;;;;;;5102786;28;20047;-56
2023/07/24 04:13:12;;;;;;;10.90;9.50;;;17.30;99.90;;;;;;5099579;28;20039;-56
2023/07/24 04:15:39;;;;;;;13.35;9.70;;;17.30;99.90;;;;;;5084760;28;20032;-56
2023/07/24 04:18:05;;;;;;;11.50;9.68;;;17.30;99.90;;;;;;5101915;28;20040;-55
2023/07/24 04:20:31;;;;;;;11.20;9.95;;;17.30;99.90;;;;;;5101698;28;20048;-57
2023/07/24 04:22:56;;;;;;;11.13;9.48;;;17.30;99.90;;;;;;5102549;28;20556;-56
2023/07/24 04:25:22;;;;;;;12.02;10.10;;;17.30;99.90;;;;;;5100855;28;20090;-56
2023/07/24 04:27:48;;;;;;;11.60;10.40;;;17.30;99.90;;;;;;5102842;28;20044;-56
2023/07/24 04:30:14;;;;;;;12.25;10.05;;;17.30;99.90;;;;;;5100538;28;20492;-57
2023/07/24 04:32:39;;;;;;;11.95;10.45;;;17.30;99.90;;;;;;5102722;28;20099;-57
2023/07/24 04:35:06;;;;;;;11.38;10.13;;;17.30;99.90;;;;;;5099729;28;20396;-55
2023/07/24 04:37:31;;;;;;;11.68;10.15;;;17.30;99.90;;;;;;5101598;28;20044;-56
2023/07/24 04:39:57;;;;;;;11.52;10.18;;;17.20;99.90;;;;;;5102154;28;20040;-56
2023/07/24 04:42:22;;;;;;;11.90;9.93;;;17.20;99.90;;;;;;5098787;28;20064;-57
2023/07/24 04:44:50;;;;;;;13.45;9.43;;;17.20;99.90;;;;;;5102400;28;20058;-57
2023/07/24 04:47:15;;;;;;;11.77;10.07;;;17.20;99.90;;;;;;5100179;28;20059;-56
2023/07/24 04:49:41;;;;;;;11.60;10.40;;;17.20;99.90;;;;;;5102497;28;20075;-56
2023/07/24 04:52:07;;;;;;;12.25;9.75;;;17.20;99.90;;;;;;5099081;28;20032;-57
2023/07/24 04:54:33;;;;;;;11.75;10.55;;;17.20;99.90;;;;;;5101656;28;20044;-57
2023/07/24 04:56:58;;;;;;;11.65;10.40;;;17.20;99.90;;;;;;5101686;28;20114;-56
2023/07/24 04:59:24;;;;;;;12.00;9.55;;;17.20;99.90;;;;;;5100149;28;20036;-57
2023/07/24 05:01:50;;;;;;;12.20;10.02;;;17.20;99.90;;;;;;5101715;28;20064;-56
2023/07/24 05:04:15;;;;;;;13.10;10.52;;;17.20;99.90;;;;;;5099897;28;20078;-56
2023/07/24 05:06:41;;;;;;;14.15;10.18;;;17.20;99.90;;;;;;5102163;28;20396;-57
2023/07/24 05:09:07;;;;;;;12.10;9.82;;;17.20;99.90;;;;;;5099949;28;20133;-56
2023/07/24 05:11:33;;;;;;;13.02;10.75;;;17.30;99.90;;;;;;5100164;28;20096;-57
2023/07/24 05:13:58;;;;;;;11.23;10.10;;;17.30;99.90;;;;;;5101028;28;20048;-56
2023/07/24 05:16:24;;;;;;;12.70;10.27;;;17.30;99.90;;;;;;5100133;28;20040;-56
2023/07/24 05:18:50;;;;;;;11.93;10.10;;;17.30;99.90;;;;;;5101485;28;20563;-56
2023/07/24 05:21:15;;;;;;;13.63;10.52;;;17.40;99.90;;;;;;5098077;28;20049;-56
2023/07/24 05:23:41;;;;;;;13.23;10.20;;;17.30;99.90;;;;;;5101724;28;20040;-56
2023/07/24 05:26:07;;;;;;;12.63;10.63;;;17.40;99.90;;;;;;5099463;28;20097;-57
2023/07/24 05:28:33;;;;;;;13.32;10.68;;;17.40;99.90;;;;;;5101503;28;20099;-56
2023/07/24 05:31:03;;;;;;;12.32;11.02;;;17.50;99.90;;;;;;5099218;28;20083;-56
2023/07/24 05:33:30;;;;;;;12.48;10.60;;;17.50;99.90;;;;;;5099949;28;20519;-57
2023/07/24 05:35:59;;;;;;;11.85;10.57;;;17.50;99.90;;;;;;5101107;28;20024;-57
2023/07/24 05:38:25;;;;;;;11.65;10.20;;;17.60;99.90;;;;;;5099173;28;20040;-56
2023/07/24 05:40:59;;;;;;;12.60;10.40;;;17.60;99.90;;;;;;5099691;28;20071;-57
2023/07/24 05:43:24;;;;;;;11.30;10.13;;;17.60;99.90;;;;;;5097918;28;20044;-56
2023/07/24 05:45:51;;;;;;;12.82;10.02;;;17.60;99.90;;;;;;5099513;28;20131;-57
2023/07/24 05:48:17;;;;;;;11.25;10.05;;;17.60;99.90;;;;;;5100703;28;20048;-56
2023/07/24 05:50:43;;;;;;;12.90;10.27;;;17.60;99.90;;;;;;5098064;28;20100;-56
2023/07/24 05:53:08;;;;;;;12.57;9.95;;;17.60;99.90;;;;;;5133632;27;20042;-57
2023/07/24 05:55:34;;;;;;;14.88;10.40;;;17.60;99.90;;;;;;5098967;28;20083;-57
2023/07/24 05:58:00;;;;;;;10.88;9.75;;;17.60;99.90;;;;;;5100950;28;20075;-57
2023/07/24 06:00:25;;;;;;;13.00;10.27;;;17.60;99.90;;;;;;5097633;28;20040;-56
2023/07/24 06:02:52;;;;;;;12.85;10.05;;;17.70;99.90;;;;;;5100893;28;20040;-56
2023/07/24 06:05:19;;;;;;;13.07;9.88;;;17.70;99.90;;;;;;5098759;28;20044;-56
2023/07/24 06:07:45;;;;;;;12.43;9.60;;;17.80;99.90;;;;;;5099265;28;20044;-57
2023/07/24 06:10:11;;;;;;;11.88;9.38;;;17.90;99.90;;;;;;5100429;28;20109;-56
2023/07/24 06:12:37;;;;;;;10.95;9.75;;;17.90;99.90;;;;;;5096791;28;20048;-56
2023/07/24 06:15:03;;;;;;;15.15;10.05;;;18.00;99.90;;;;;;5100703;28;20095;-56
2023/07/24 06:17:29;;;;;;;14.10;10.00;;;18.10;99.90;;;;;;5098523;28;20166;-56
2023/07/24 06:19:54;;;;;;;13.55;10.18;;;18.10;99.90;;;;;;5082423;28;20447;-56
2023/07/24 06:22:20;;;;;;;13.23;9.45;;;18.10;99.90;;;;;;5098979;28;20043;-56
2023/07/24 06:24:46;;;;;;;13.93;9.93;;;18.10;99.90;;;;;;5099347;28;20040;-56
2023/07/24 06:27:12;;;;;;;15.10;9.95;;;18.20;99.90;;;;;;5100448;28;20043;-56
2023/07/24 06:29:38;;;;;;;12.15;9.80;;;18.30;99.90;;;;;;5098451;28;20400;-57
2023/07/24 06:32:04;;;;;;;15.07;10.02;;;18.30;99.90;;;;;;5100146;28;20043;-56
2023/07/24 06:34:29;;;;;;;16.85;10.05;;;18.40;99.90;;;;;;5097995;28;20100;-57
2023/07/24 06:36:55;;;;;;;11.05;9.38;;;18.50;99.90;;;;;;5100649;28;20044;-56
2023/07/24 06:39:21;;;;;;;13.70;9.20;;;18.60;99.90;;;;;;5098793;28;20040;-56
2023/07/24 06:41:46;;;;;;;13.50;9.63;;;18.60;99.90;;;;;;5098984;28;20436;-57
2023/07/24 06:44:12;;;;;;;13.35;9.15;;;18.60;99.90;;;;;;5081634;28;20076;-56
2023/07/24 06:46:38;;;;;;;10.95;9.23;;;18.60;99.90;;;;;;5098169;28;20044;-57
2023/07/24 06:49:03;;;;;;;15.13;9.85;;;18.60;99.90;;;;;;5098663;28;20050;-56
2023/07/24 06:51:29;;;;;;;12.63;10.00;;;18.60;99.90;;;;;;5097858;28;20044;-56
2023/07/24 06:53:55;;;;;;;12.43;9.38;;;18.60;99.90;;;;;;5100385;28;20551;-56
2023/07/24 06:56:20;;;;;;;15.20;10.05;;;18.60;99.90;;;;;;5098375;28;20040;-57
2023/07/24 06:58:46;;;;;;;12.07;9.02;;;18.60;99.90;;;;;;5099654;28;20086;-57
2023/07/24 07:01:12;;;;;;;12.75;9.15;;;18.70;99.90;;;;;;5099547;28;20066;-56
2023/07/24 07:03:37;;;;;;;15.80;9.80;;;18.70;99.90;;;;;;5098178;28;20096;-57
2023/07/24 07:06:03;;;;;;;15.48;9.18;;;18.70;99.90;;;;;;5098616;28;20153;-57
2023/07/24 07:08:30;;;;;;;14.45;9.40;;;18.70;99.90;;;;;;5097782;28;20333;-57
2023/07/24 07:11:00;;;;;;;15.43;9.85;;;18.70;99.90;;;;;;5099645;28;20522;-56
2023/07/24 07:13:26;;;;;;;15.23;9.48;;;18.70;99.90;;;;;;5096887;28;20047;-56
2023/07/24 07:15:52;;;;;;;18.17;9.35;;;18.70;99.90;;;;;;5099424;28;20029;-56
2023/07/24 07:18:17;;;;;;;17.48;8.63;;;18.70;99.90;;;;;;5099379;28;20040;-56
2023/07/24 07:20:53;;;;;;;14.77;9.63;;;18.70;99.90;;;;;;5096349;28;20048;-59
2023/07/24 07:23:19;;;;;;;14.57;9.68;;;18.80;99.90;;;;;;5099681;28;20043;-57
2023/07/24 07:25:46;;;;;;;14.13;10.20;;;18.90;99.90;;;;;;5096127;28;20036;-57
2023/07/24 07:28:13;;;;;;;16.77;9.90;;;18.90;99.90;;;;;;5100035;28;20044;-56
2023/07/24 07:30:39;;;;;;;14.73;9.55;;;19.00;99.90;;;;;;5098106;28;20074;-56
2023/07/24 07:33:05;;;;;;;13.95;9.38;;;19.00;99.90;;;;;;5098968;28;20048;-57
2023/07/24 07:35:35;;;;;;;12.73;9.23;;;19.00;99.90;;;;;;5100784;28;20044;-56
2023/07/24 07:38:01;;;;;;;16.60;9.05;;;19.00;99.90;;;;;;5101469;28;20040;-56
2023/07/24 07:40:27;;;;;;;18.70;9.02;;;19.00;99.90;;;;;;5103498;28;20055;-57
2023/07/24 07:42:53;;;;;;;16.27;9.40;;;19.20;99.90;;;;;;5100983;28;20036;-57
2023/07/24 07:45:19;;;;;;;13.73;9.13;;;19.40;99.90;;;;;;5103843;28;20100;-56
2023/07/24 07:47:45;;;;;;;16.38;8.77;;;19.60;99.90;;;;;;5101755;28;20048;-57
2023/07/24 07:50:11;;;;;;;15.07;8.43;;;19.80;99.90;;;;;;5102782;28;20105;-56
2023/07/24 07:52:37;;;;;;;16.83;9.13;;;19.80;99.90;;;;;;5101293;28;20048;-56
2023/07/24 07:55:03;;;;;;;14.80;9.07;;;19.90;99.90;;;;;;5100003;28;20039;-56
2023/07/24 07:57:29;;;;;;;14.27;9.60;;;19.90;99.90;;;;;;5101682;28;20046;-56
2023/07/24 07:59:54;;;;;;;14.63;9.52;;;19.90;99.90;;;;;;5101197;28;20051;-56
2023/07/24 08:02:20;;;;;;;15.25;9.18;;;19.90;99.90;;;;;;5103116;28;20063;-56
2023/07/24 08:04:46;;;;;;;15.93;9.55;;;19.80;99.90;;;;;;5100989;28;20186;-56
2023/07/24 08:07:11;;;;;;;15.27;9.70;;;19.80;99.90;;;;;;5101088;28;20054;-57
2023/07/24 08:09:38;;;;;;;15.43;8.98;;;19.80;99.90;;;;;;5102356;28;20044;-57
2023/07/24 08:12:04;;;;;;;16.23;9.07;;;19.80;99.90;;;;;;5101020;28;20119;-56
2023/07/24 08:14:30;;;;;;;14.30;8.30;;;19.80;99.90;;;;;;5102675;28;20050;-56
2023/07/24 08:16:56;;;;;;;15.32;9.20;;;19.80;99.90;;;;;;5099416;28;20068;-56
2023/07/24 08:19:22;;;;;;;12.13;8.55;;;19.80;99.90;;;;;;5102863;28;20047;-57
2023/07/24 08:21:47;;;;;;;13.68;8.70;;;19.80;99.90;;;;;;5100503;28;20040;-57
2023/07/24 08:24:13;;;;;;;11.82;8.48;;;19.80;99.90;;;;;;5102659;28;20043;-57
2023/07/24 08:26:39;;;;;;;13.48;8.90;;;19.80;99.90;;;;;;5100600;28;20055;-56
2023/07/24 08:29:05;;;;;;;16.98;9.55;;;19.80;99.90;;;;;;5101275;28;20051;-56
2023/07/24 08:31:31;;;;;;;12.13;8.75;;;19.80;99.90;;;;;;5102190;28;20080;-58
2023/07/24 08:33:57;;;;;;;15.27;9.13;;;19.80;99.90;;;;;;5100278;28;20134;-56
2023/07/24 08:36:23;;;;;;;14.55;9.43;;;19.80;99.90;;;;;;5102412;28;20054;-56
2023/07/24 08:38:48;;;;;;;17.88;8.82;;;19.90;99.90;;;;;;5100549;28;20052;-56
2023/07/24 08:41:14;;;;;;;11.65;8.32;;;19.90;99.90;;;;;;5100932;28;20048;-57
2023/07/24 08:43:43;;;;;;;15.55;8.35;;;19.90;99.90;;;;;;5101183;28;20089;-57
2023/07/24 08:46:09;;;;;;;14.00;8.50;;;19.90;99.90;;;;;;5100833;28;20086;-56
2023/07/24 08:48:39;;;;;;;17.73;8.85;;;19.90;99.90;;;;;;5102018;28;20044;-56
2023/07/24 08:51:11;;;;;;;12.40;8.82;;;19.90;99.90;;;;;;5100393;28;20040;-57
2023/07/24 08:53:39;;;;;;;14.25;8.43;;;20.00;99.90;;;;;;5102361;28;20055;-56
2023/07/24 08:56:09;;;;;;;17.33;8.30;;;20.00;99.90;;;;;;5099107;28;20040;-56
2023/07/24 08:58:36;;;;;;;17.40;8.45;;;20.00;99.90;;;;;;5101817;28;20063;-57
2023/07/24 09:01:03;;;;;;;11.48;7.95;;;20.00;99.90;;;;;;5101466;28;20036;-56
2023/07/24 09:03:31;;;;;;;15.05;8.05;;;20.00;99.90;;;;;;5100215;28;20055;-57
2023/07/24 09:05:57;;;;;;;15.40;9.00;;;20.00;99.90;;;;;;5100355;28;20596;-56
2023/07/24 09:08:40;;;;;;;13.02;8.35;;;20.10;99.90;;;;;;5099746;28;20046;-57
2023/07/24 09:11:07;;;;;;;15.68;9.13;;;20.10;99.90;;;;;;5101863;28;20070;-56
2023/07/24 09:13:36;;;;;;;14.63;8.60;;;20.10;99.90;;;;;;5100276;28;20071;-55
2023/07/24 09:16:02;;;;;;;17.75;9.27;;;20.20;99.90;;;;;;5100669;28;20050;-56
2023/07/24 09:18:42;;;;;;;14.98;8.80;;;20.20;99.90;;;;;;5100050;28;20119;-56
2023/07/24 09:21:08;;;;;;;16.33;8.63;;;20.30;99.90;;;;;;5098266;28;20039;-57
2023/07/24 09:23:34;;;;;;;14.85;8.95;;;20.30;99.90;;;;;;5101659;28;20048;-57
2023/07/24 09:26:05;;;;;;;14.27;9.15;;;20.50;99.90;;;;;;5099407;28;20589;-57
2023/07/24 09:28:33;;;;;;;14.90;8.77;;;20.70;99.90;;;;;;5101390;28;20054;-57
2023/07/24 09:31:02;;;;;;;16.52;8.80;;;20.70;99.90;;;;;;5100605;28;20048;-56
2023/07/24 09:33:38;;;;;;;14.80;7.57;;;20.80;99.90;;;;;;5099473;28;20572;-57
2023/07/24 09:36:07;;;;;;;12.38;8.07;;;20.90;99.90;;;;;;5100983;28;20048;-57
2023/07/24 09:38:33;;;;;;;14.27;8.20;;;21.00;99.90;;;;;;5099046;28;20095;-57
2023/07/24 09:41:01;;;;;;;13.57;7.22;;;21.10;99.90;;;;;;5099835;28;20076;-56
2023/07/24 09:43:28;;;;;;;16.63;7.97;;;21.00;99.90;;;;;;5098497;28;20067;-56
2023/07/24 09:45:54;;;;;;;12.05;7.32;;;21.10;99.90;;;;;;5099128;28;20047;-57
2023/07/24 09:48:22;;;;;;;9.98;7.13;;;21.20;99.90;;;;;;5100892;28;20044;-56
2023/07/24 09:50:49;;;;;;;11.50;7.50;;;21.30;99.90;;;;;;5097853;28;20048;-57
2023/07/24 09:53:48;;;;;;;12.57;7.88;;;21.30;99.90;;;;;;5100825;28;20051;-56
2023/07/24 09:56:15;;;;;;;13.90;8.07;;;21.40;99.90;;;;;;5099384;28;20063;-56
2023/07/24 09:58:40;;;;;;;12.68;7.97;;;21.30;99.90;;;;;;5098501;28;20036;-57
2023/07/24 10:01:08;;;;;;;10.38;6.95;;;21.30;99.90;;;;;;5100577;28;20131;-56
2023/07/24 10:03:47;;;;;;;11.57;7.47;;;21.30;99.90;;;;;;5097558;28;20105;-56
2023/07/24 10:06:14;;;;;;;11.40;6.50;;;21.40;99.90;;;;;;5100936;28;20073;-56
2023/07/24 10:08:41;;;;;;;10.80;5.68;;;21.50;99.90;;;;;;5098517;28;20047;-56
2023/07/24 10:11:13;;;;;;;9.88;6.57;;;21.60;99.90;;;;;;5099344;28;20040;-56
2023/07/24 10:13:41;;;;;;;9.35;6.90;;;21.70;99.90;;;;;;5081477;28;20049;-56
2023/07/24 10:16:07;;;;;;;13.18;6.80;;;21.80;99.90;;;;;;5098137;28;20074;-57
2023/07/24 10:18:35;;;;;;;13.25;7.25;;;21.90;99.90;;;;;;5100233;28;20040;-57
2023/07/24 10:21:05;;;;;;;11.00;6.53;;;21.90;99.90;;;;;;5098478;28;20092;-56
2023/07/24 10:23:33;;;;;;;10.88;6.55;;;21.90;99.90;;;;;;5100453;28;20040;-56
2023/07/24 10:26:03;;;;;;;9.23;6.30;;;21.90;99.90;;;;;;5098404;28;20089;-57
2023/07/24 10:28:34;;;;;;;10.68;5.63;;;21.90;99.90;;;;;;5100325;28;20046;-57
2023/07/24 10:31:01;;;;;;;10.90;6.50;;;22.00;99.90;;;;;;5099485;28;20101;-56
2023/07/24 10:33:31;;;;;;;12.02;6.68;;;21.90;99.90;;;;;;5098590;28;20108;-56
2023/07/24 10:36:10;;;;;;;12.75;6.43;;;21.90;99.90;;;;;;5098734;28;20043;-57
2023/07/24 10:38:41;;;;;;;9.85;6.28;;;21.90;99.90;;;;;;5096690;28;20099;-56
2023/07/24 10:41:08;;;;;;;8.93;6.18;;;21.90;99.90;;;;;;5100009;28;20059;-56
2023/07/24 10:43:52;;;;;;;10.57;6.72;;;21.80;99.90;;;;;;5097530;28;20130;-57
2023/07/24 10:46:20;;;;;;;9.00;6.72;;;21.70;99.90;;;;;;5098494;28;20048;-56
2023/07/24 10:48:48;;;;;;;11.30;6.68;;;21.70;99.90;;;;;;5100187;28;20036;-57
2023/07/24 10:51:14;;;;;;;10.15;7.13;;;21.60;99.90;;;;;;5098092;28;20040;-57
2023/07/24 10:53:45;;;;;;;15.32;7.35;;;21.60;99.90;;;;;;5100122;28;20135;-57
2023/07/24 10:56:11;;;;;;;12.23;7.00;;;21.50;99.90;;;;;;5097105;28;20428;-57
2023/07/24 10:58:37;;;;;;;11.75;7.15;;;21.50;99.90;;;;;;5099506;28;20044;-57
2023/07/24 11:01:07;;;;;;;10.63;6.47;;;21.40;99.90;;;;;;5099509;28;20040;-56
2023/07/24 11:03:35;;;;;;;8.48;6.20;;;21.40;99.90;;;;;;5079774;28;20055;-57
2023/07/24 11:06:02;;;;;;;11.57;6.70;;;21.40;99.90;;;;;;5099843;28;20037;-56
2023/07/24 11:08:28;;;;;;;11.20;6.82;;;21.50;99.90;;;;;;5098703;28;20061;-57
2023/07/24 11:10:58;;;;;;;10.45;6.60;;;21.60;99.90;;;;;;5104353;28;20066;-56
2023/07/24 11:13:26;;;;;;;12.00;6.97;;;21.70;99.90;;;;;;5101285;28;20048;-56
2023/07/24 11:15:53;;;;;;;10.63;6.07;;;21.70;99.90;;;;;;5102201;28;20095;-58
2023/07/24 11:18:21;;;;;;;13.18;6.10;;;21.70;99.90;;;;;;5102521;28;20392;-56
2023/07/24 11:20:52;;;;;;;9.98;5.60;;;21.70;99.90;;;;;;5101789;28;20047;-57
2023/07/24 11:23:18;;;;;;;10.25;6.70;;;21.80;99.90;;;;;;5104118;28;20047;-57
2023/07/24 11:25:44;;;;;;;10.98;6.53;;;21.90;99.90;;;;;;5101762;28;20103;-57
2023/07/24 11:28:12;;;;;;;9.38;6.55;;;22.10;99.90;;;;;;5104199;28;20055;-57
2023/07/24 11:30:38;;;;;;;11.65;6.03;;;22.20;99.90;;;;;;5102284;28;20504;-56
2023/07/24 11:33:07;;;;;;;8.50;5.55;;;22.30;99.90;;;;;;5102649;28;20086;-57
2023/07/24 11:35:34;;;;;;;10.75;6.35;;;22.50;99.90;;;;;;5103369;28;20063;-57
2023/07/24 11:38:00;;;;;;;11.75;6.05;;;22.60;99.90;;;;;;5100344;28;20036;-57
2023/07/24 11:40:34;;;;;;;14.50;6.32;;;22.60;99.90;;;;;;5103598;28;20047;-57
2023/07/24 11:43:01;;;;;;;10.15;6.15;;;22.60;99.90;;;;;;5101328;28;20050;-57
2023/07/24 11:45:27;;;;;;;10.50;6.00;;;22.60;99.90;;;;;;5103646;28;20411;-57
2023/07/24 11:47:53;;;;;;;12.23;6.47;;;22.60;99.90;;;;;;5102271;28;20438;-56
2023/07/24 11:50:20;;;;;;;13.10;5.90;;;22.60;99.90;;;;;;5101027;28;20063;-57
2023/07/24 11:52:51;;;;;;;10.60;5.68;;;22.60;99.90;;;;;;5103216;28;20115;-56
2023/07/24 11:55:31;;;;;;;9.55;6.10;;;22.50;99.90;;;;;;5101280;28;20068;-56
2023/07/24 11:57:58;;;;;;;10.35;6.32;;;22.50;99.90;;;;;;5103436;28;20044;-57
2023/07/24 12:00:24;;;;;;;14.32;5.93;;;22.60;99.90;;;;;;5101169;28;20043;-56
2023/07/24 12:02:51;;;;;;;10.68;6.35;;;22.60;99.90;;;;;;5101151;28;20524;-57
2023/07/24 12:05:16;;;;;;;13.63;6.30;;;22.60;99.90;;;;;;5102458;28;20651;-56
2023/07/24 12:07:45;;;;;;;10.88;6.88;;;22.60;99.90;;;;;;5100262;28;20100;-58
2023/07/24 12:10:12;;;;;;;11.02;6.22;;;22.60;99.90;;;;;;5102889;28;20032;-57
2023/07/24 12:12:38;;;;;;;8.75;5.93;;;22.60;99.90;;;;;;5099317;28;20040;-57
2023/07/24 12:15:04;;;;;;;10.10;6.55;;;22.70;99.90;;;;;;5103059;28;20036;-57
2023/07/24 12:17:30;;;;;;;10.65;6.72;;;22.70;99.90;;;;;;5101012;28;20050;-56
2023/07/24 12:19:55;;;;;;;11.02;7.10;;;22.70;99.90;;;;;;5100615;28;20527;-57
2023/07/24 12:22:22;;;;;;;12.05;6.85;;;22.80;99.90;;;;;;5083906;28;20046;-56
2023/07/24 12:24:47;;;;;;;9.98;6.47;;;22.90;99.90;;;;;;5099868;28;20044;-57
2023/07/24 12:27:13;;;;;;;9.48;6.35;;;22.90;99.90;;;;;;5101340;28;20093;-57
2023/07/24 12:29:39;;;;;;;10.32;6.53;;;22.90;99.90;;;;;;5100538;28;20090;-57
2023/07/24 12:32:05;;;;;;;12.45;6.38;;;22.80;99.90;;;;;;5102574;28;20086;-57
2023/07/24 12:34:30;;;;;;;9.25;5.85;;;22.80;99.90;;;;;;5100555;28;20075;-56